createdAt,value
2022-08-25T00:00:23.280Z,18.49
2022-08-25T00:03:25.630Z,18.41
2022-08-25T00:06:28.734Z,18.37
2022-08-25T00:09:32.699Z,18.33
2022-08-25T00:12:34.400Z,18.27
2022-08-25T00:15:36.722Z,18.23
2022-08-25T00:18:39.914Z,18.18
2022-08-25T00:21:43.728Z,18.13
2022-08-25T00:24:45.800Z,18.10
2022-08-25T00:27:48.574Z,18.05
2022-08-25T00:30:50.337Z,18.00
2022-08-25T00:33:53.841Z,17.96
2022-08-25T00:36:55.823Z,17.91
2022-08-25T00:39:58.693Z,17.87
2022-08-25T00:43:00.604Z,17.80
2022-08-25T00:46:02.994Z,17.77
2022-08-25T00:49:36.341Z,17.75
2022-08-25T00:52:42.447Z,17.69
2022-08-25T00:55:44.300Z,17.66
2022-08-25T00:58:46.218Z,17.66
2022-08-25T01:01:49.402Z,17.61
2022-08-25T01:04:51.196Z,17.55
2022-08-25T01:07:58.650Z,17.50
2022-08-25T01:11:04.958Z,17.44
2022-08-25T01:14:07.488Z,17.43
2022-08-25T01:17:09.611Z,17.39
2022-08-25T01:20:11.531Z,17.34
2022-08-25T01:23:13.139Z,17.32
2022-08-25T01:26:25.093Z,17.27
2022-08-25T01:29:33.357Z,17.23
2022-08-25T01:32:35.170Z,17.16
2022-08-25T01:35:37.798Z,17.12
2022-08-25T01:38:39.673Z,17.08
2022-08-25T01:41:41.342Z,17.03
2022-08-25T01:44:45.222Z,17.02
2022-08-25T01:47:46.828Z,17.04
2022-08-25T01:50:49.917Z,17.02
2022-08-25T01:53:51.696Z,17.02
2022-08-25T01:56:53.314Z,17.00
2022-08-25T01:59:54.933Z,16.98
2022-08-25T02:02:57.546Z,16.93
2022-08-25T02:06:01.410Z,16.87
2022-08-25T02:09:10.044Z,16.83
2022-08-25T02:12:12.261Z,16.80
2022-08-25T02:15:14.497Z,16.78
2022-08-25T02:18:17.408Z,16.76
2022-08-25T02:21:19.076Z,16.74
2022-08-25T02:24:20.975Z,16.72
2022-08-25T02:27:23.430Z,16.71
2022-08-25T02:30:25.575Z,16.70
2022-08-25T02:33:27.263Z,16.69
2022-08-25T02:36:29.942Z,16.70
2022-08-25T02:39:31.624Z,16.73
2022-08-25T02:42:33.611Z,16.72
2022-08-25T02:45:36.746Z,16.72
2022-08-25T02:48:39.750Z,16.74
2022-08-25T02:51:41.406Z,16.71
2022-08-25T02:54:43.019Z,16.67
2022-08-25T02:57:44.878Z,16.63
2022-08-25T03:00:47.486Z,16.60
2022-08-25T03:03:49.769Z,16.58
2022-08-25T03:06:51.470Z,16.60
2022-08-25T03:09:54.267Z,16.60
2022-08-25T03:12:56.268Z,16.57
2022-08-25T03:15:59.567Z,16.57
2022-08-25T03:19:01.535Z,16.55
2022-08-25T03:22:04.595Z,16.54
2022-08-25T03:25:25.321Z,16.51
2022-08-25T03:28:29.910Z,16.46
2022-08-25T03:31:33.625Z,16.44
2022-08-25T03:34:35.803Z,16.40
2022-08-25T03:37:37.915Z,16.43
2022-08-25T03:40:39.596Z,16.40
2022-08-25T03:43:41.897Z,16.38
2022-08-25T03:46:48.773Z,16.39
2022-08-25T03:49:51.723Z,16.36
2022-08-25T03:52:56.281Z,16.35
2022-08-25T03:55:57.935Z,16.34
2022-08-25T03:59:00.097Z,16.32
2022-08-25T04:02:02.807Z,16.30
2022-08-25T04:05:04.848Z,16.28
2022-08-25T04:08:07.228Z,16.29
2022-08-25T04:11:13.137Z,16.28
2022-08-25T04:14:16.537Z,16.25
2022-08-25T04:17:18.565Z,16.22
2022-08-25T04:20:20.231Z,16.19
2022-08-25T04:23:21.850Z,16.15
2022-08-25T04:26:29.796Z,16.14
2022-08-25T04:29:31.465Z,16.08
2022-08-25T04:32:35.274Z,16.06
2022-08-25T04:35:36.987Z,16.03
2022-08-25T04:38:41.597Z,16.05
2022-08-25T04:41:43.880Z,16.00
2022-08-25T04:44:45.558Z,16.01
2022-08-25T04:47:49.646Z,16.01
2022-08-25T04:50:53.401Z,16.04
2022-08-25T04:54:01.135Z,16.09
2022-08-25T04:57:02.818Z,16.13
2022-08-25T05:00:05.747Z,16.20
2022-08-25T05:03:08.405Z,16.24
2022-08-25T05:06:15.287Z,16.36
2022-08-25T05:09:19.884Z,16.46
2022-08-25T05:12:23.520Z,16.57
2022-08-25T05:15:45.186Z,16.66
2022-08-25T05:18:48.535Z,16.82
2022-08-25T05:21:50.431Z,16.91
2022-08-25T05:24:52.163Z,17.01
2022-08-25T05:27:53.881Z,17.10
2022-08-25T05:31:00.002Z,17.23
2022-08-25T05:34:06.349Z,17.49
2022-08-25T05:37:11.972Z,18.98
2022-08-25T05:40:14.308Z,20.97
2022-08-25T05:43:16.013Z,22.45
2022-08-25T05:46:19.601Z,23.68
2022-08-25T05:49:21.410Z,24.06
2022-08-25T05:52:23.204Z,24.74
2022-08-25T05:55:24.837Z,24.67
2022-08-25T05:58:28.459Z,24.30
2022-08-25T06:01:48.701Z,23.95
2022-08-25T06:04:50.324Z,23.06
2022-08-25T06:07:52.352Z,22.62
2022-08-25T06:10:54.036Z,23.31
2022-08-25T06:13:55.618Z,23.10
2022-08-25T06:16:57.309Z,22.66
2022-08-25T06:19:59.153Z,22.20
2022-08-25T06:23:01.672Z,21.64
2022-08-25T06:26:03.580Z,21.18
2022-08-25T06:29:05.270Z,20.99
2022-08-25T06:32:07.041Z,20.66
2022-08-25T06:35:13.006Z,20.63
2022-08-25T06:38:14.922Z,20.68
2022-08-25T06:41:16.707Z,21.05
2022-08-25T06:44:18.581Z,21.86
2022-08-25T06:47:20.678Z,22.40
2022-08-25T06:50:22.431Z,22.86
2022-08-25T06:53:24.070Z,23.04
2022-08-25T06:56:26.634Z,22.92
2022-08-25T06:59:32.265Z,22.76
2022-08-25T07:02:35.327Z,22.55
2022-08-25T07:05:44.406Z,22.24
2022-08-25T07:08:47.395Z,22.02
2022-08-25T07:11:49.051Z,22.44
2022-08-25T07:15:10.096Z,22.79
2022-08-25T07:18:13.368Z,22.93
2022-08-25T07:21:15.560Z,22.96
2022-08-25T07:24:18.343Z,22.86
2022-08-25T07:27:20.540Z,22.72
2022-08-25T07:30:23.369Z,22.62
2022-08-25T07:33:25.316Z,22.60
2022-08-25T07:36:28.284Z,22.51
2022-08-25T07:39:30.758Z,22.50
2022-08-25T07:42:33.800Z,22.57
2022-08-25T07:45:48.141Z,22.56
2022-08-25T07:48:53.310Z,22.58
2022-08-25T07:52:05.661Z,22.64
2022-08-25T07:55:11.086Z,22.68
2022-08-25T07:58:13.291Z,22.75
2022-08-25T08:01:20.228Z,22.80
2022-08-25T08:04:22.343Z,22.93
2022-08-25T08:07:42.147Z,23.07
2022-08-25T08:11:04.356Z,23.22
2022-08-25T08:14:08.403Z,23.42
2022-08-25T08:17:11.234Z,23.45
2022-08-25T08:20:13.532Z,23.60
2022-08-25T08:23:17.559Z,23.81
2022-08-25T08:26:20.620Z,23.94
2022-08-25T08:29:23.192Z,24.09
2022-08-25T08:32:31.463Z,24.14
2022-08-25T08:35:37.212Z,24.27
2022-08-25T08:38:41.604Z,24.43
2022-08-25T08:42:13.128Z,24.53
2022-08-25T08:45:27.119Z,24.67
2022-08-25T08:48:44.790Z,24.76
2022-08-25T08:51:56.310Z,24.87
2022-08-25T08:55:02.940Z,24.94
2022-08-25T08:58:46.823Z,25.08
2022-08-25T09:02:03.885Z,25.26
2022-08-25T09:05:14.886Z,25.44
2022-08-25T09:08:20.416Z,25.56
2022-08-25T09:11:40.983Z,25.67
2022-08-25T09:14:42.617Z,25.82
2022-08-25T09:18:18.701Z,26.11
2022-08-25T09:21:36.270Z,26.40
2022-08-25T09:24:37.893Z,26.48
2022-08-25T09:27:44.253Z,26.58
2022-08-25T09:30:57.707Z,26.81
2022-08-25T09:34:03.684Z,26.64
2022-08-25T09:37:05.817Z,26.37
2022-08-25T09:40:12.189Z,26.11
2022-08-25T09:43:29.855Z,25.80
2022-08-25T09:46:31.765Z,25.91
2022-08-25T09:50:04.538Z,25.78
2022-08-25T09:53:14.786Z,25.97
2022-08-25T09:56:23.404Z,25.92
2022-08-25T09:59:35.738Z,25.97
2022-08-25T10:02:38.472Z,26.07
2022-08-25T10:05:49.354Z,26.49
2022-08-25T10:09:02.046Z,26.64
2022-08-25T10:12:27.963Z,26.57
2022-08-25T10:15:37.876Z,26.31
2022-08-25T10:18:39.820Z,26.15
2022-08-25T10:21:44.728Z,25.94
2022-08-25T10:24:46.601Z,25.84
2022-08-25T10:28:15.927Z,26.08
2022-08-25T10:31:45.243Z,26.22
2022-08-25T10:34:54.861Z,26.20
2022-08-25T10:38:02.731Z,26.35
2022-08-25T10:41:23.233Z,26.30
2022-08-25T10:44:58.748Z,26.11
2022-08-25T10:48:15.640Z,26.07
2022-08-25T10:51:43.211Z,26.10
2022-08-25T10:54:59.237Z,26.48
2022-08-25T10:58:30.808Z,26.71
2022-08-25T11:02:02.742Z,26.50
2022-08-25T11:05:12.739Z,26.56
2022-08-25T11:08:23.060Z,26.67
2022-08-25T11:11:36.973Z,26.73
2022-08-25T11:14:56.224Z,26.80
2022-08-25T11:18:17.105Z,26.86
2022-08-25T11:21:26.179Z,26.74
2022-08-25T11:24:54.093Z,26.55
2022-08-25T11:28:16.374Z,26.57
2022-08-25T11:31:20.088Z,26.54
2022-08-25T11:34:22.739Z,26.39
2022-08-25T11:37:30.702Z,26.60
2022-08-25T11:40:50.087Z,26.94
2022-08-25T11:44:54.033Z,26.88
2022-08-25T11:48:26.910Z,26.90
2022-08-25T11:51:33.920Z,26.73
2022-08-25T11:54:44.581Z,26.59
2022-08-25T11:57:53.409Z,26.48
2022-08-25T12:00:58.564Z,26.51
2022-08-25T12:04:33.557Z,26.58
2022-08-25T12:07:52.100Z,26.74
2022-08-25T12:11:10.881Z,26.89
2022-08-25T12:14:18.305Z,27.11
2022-08-25T12:17:28.239Z,27.29
2022-08-25T12:20:55.143Z,27.17
2022-08-25T12:24:03.084Z,26.99
2022-08-25T12:27:08.837Z,26.91
2022-08-25T12:30:22.796Z,26.90
2022-08-25T12:33:49.792Z,26.86
2022-08-25T12:37:13.783Z,26.71
2022-08-25T12:40:34.903Z,26.61
2022-08-25T12:43:45.321Z,26.81
2022-08-25T12:46:51.290Z,27.03
2022-08-25T12:50:13.634Z,27.28
2022-08-25T12:53:38.537Z,27.50
2022-08-25T12:56:50.241Z,27.73
2022-08-25T13:00:01.128Z,27.74
2022-08-25T13:04:09.390Z,27.57
2022-08-25T13:07:23.246Z,27.33
2022-08-25T13:10:57.411Z,27.38
2022-08-25T13:14:22.466Z,27.55
2022-08-25T13:17:28.999Z,27.65
2022-08-25T13:20:30.980Z,27.79
2022-08-25T13:23:38.276Z,28.01
2022-08-25T13:26:48.175Z,28.04
2022-08-25T13:30:03.703Z,28.08
2022-08-25T13:33:20.732Z,28.08
2022-08-25T13:36:52.090Z,28.02
2022-08-25T13:40:18.741Z,28.09
2022-08-25T13:43:27.462Z,28.12
2022-08-25T13:46:35.551Z,28.11
2022-08-25T13:49:39.939Z,27.98
2022-08-25T13:52:45.168Z,27.81
2022-08-25T13:55:59.804Z,27.70
2022-08-25T13:59:03.866Z,27.67
2022-08-25T14:02:09.501Z,27.76
2022-08-25T14:05:42.655Z,27.88
2022-08-25T14:09:03.650Z,27.79
2022-08-25T14:12:07.576Z,27.74
2022-08-25T14:15:17.289Z,27.73
2022-08-25T14:18:26.987Z,27.71
2022-08-25T14:21:31.335Z,27.70
2022-08-25T14:24:40.933Z,27.87
2022-08-25T14:28:06.776Z,27.91
2022-08-25T14:31:17.947Z,27.98
2022-08-25T14:34:36.704Z,27.88
2022-08-25T14:37:38.498Z,27.89
2022-08-25T14:40:42.273Z,27.83
2022-08-25T14:43:44.390Z,27.69
2022-08-25T14:46:54.187Z,27.70
2022-08-25T14:49:55.865Z,27.65
2022-08-25T14:52:58.259Z,27.63
2022-08-25T14:56:01.400Z,27.56
2022-08-25T14:59:12.676Z,27.66
2022-08-25T15:02:19.885Z,27.73
2022-08-25T15:05:29.312Z,27.78
2022-08-25T15:08:50.893Z,27.75
2022-08-25T15:11:56.900Z,27.85
2022-08-25T15:14:58.572Z,27.88
2022-08-25T15:18:01.267Z,27.83
2022-08-25T15:21:03.502Z,27.85
2022-08-25T15:24:07.056Z,27.86
2022-08-25T15:27:20.439Z,27.92
2022-08-25T15:30:30.983Z,27.93
2022-08-25T15:33:36.065Z,27.95
2022-08-25T15:36:37.976Z,27.92
2022-08-25T15:39:41.974Z,27.84
2022-08-25T15:42:49.282Z,27.79
2022-08-25T15:45:51.588Z,27.74
2022-08-25T15:48:53.376Z,27.75
2022-08-25T15:51:56.681Z,27.68
2022-08-25T15:54:59.900Z,27.65
2022-08-25T15:58:04.933Z,27.56
2022-08-25T16:01:07.240Z,27.54
2022-08-25T16:04:12.119Z,27.49
2022-08-25T16:07:13.840Z,27.45
2022-08-25T16:10:17.748Z,27.39
2022-08-25T16:13:19.571Z,27.38
2022-08-25T16:16:25.506Z,27.35
2022-08-25T16:19:33.380Z,27.34
2022-08-25T16:22:39.829Z,27.32
2022-08-25T16:25:52.873Z,27.35
2022-08-25T16:28:59.909Z,27.36
2022-08-25T16:32:06.976Z,27.38
2022-08-25T16:35:11.002Z,27.39
2022-08-25T16:38:13.194Z,27.38
2022-08-25T16:41:22.625Z,27.36
2022-08-25T16:44:24.561Z,27.37
2022-08-25T16:47:28.614Z,27.37
2022-08-25T16:50:31.147Z,27.32
2022-08-25T16:53:54.851Z,27.37
2022-08-25T16:57:00.754Z,27.44
2022-08-25T17:00:04.784Z,27.45
2022-08-25T17:03:06.847Z,27.41
2022-08-25T17:06:08.797Z,27.37
2022-08-25T17:09:12.630Z,27.32
2022-08-25T17:12:16.906Z,27.34
2022-08-25T17:15:23.790Z,27.30
2022-08-25T17:18:25.866Z,27.27
2022-08-25T17:21:31.417Z,27.27
2022-08-25T17:24:33.872Z,27.21
2022-08-25T17:27:35.977Z,27.17
2022-08-25T17:30:39.064Z,27.18
2022-08-25T17:33:42.395Z,27.13
2022-08-25T17:36:44.212Z,27.07
2022-08-25T17:39:46.088Z,26.99
2022-08-25T17:42:48.054Z,26.97
2022-08-25T17:45:50.345Z,26.88
2022-08-25T17:48:55.317Z,26.88
2022-08-25T17:51:57.222Z,26.83
2022-08-25T17:54:59.053Z,26.83
2022-08-25T17:58:02.981Z,26.84
2022-08-25T18:01:05.580Z,26.82
2022-08-25T18:04:07.969Z,26.74
2022-08-25T18:07:19.688Z,26.70
2022-08-25T18:10:21.454Z,26.65
2022-08-25T18:13:23.948Z,26.60
2022-08-25T18:16:26.740Z,26.54
2022-08-25T18:19:28.502Z,26.48
2022-08-25T18:22:31.993Z,26.43
2022-08-25T18:25:34.754Z,26.36
2022-08-25T18:28:36.470Z,26.30
2022-08-25T18:31:38.257Z,26.20
2022-08-25T18:34:40.368Z,26.19
2022-08-25T18:38:00.769Z,26.11
2022-08-25T18:41:06.482Z,26.06
2022-08-25T18:44:10.634Z,25.98
2022-08-25T18:47:12.614Z,25.90
2022-08-25T18:50:15.301Z,25.83
2022-08-25T18:53:17.993Z,25.74
2022-08-25T18:56:33.376Z,25.67
2022-08-25T18:59:35.280Z,25.60
2022-08-25T19:02:37.076Z,25.50
2022-08-25T19:05:41.486Z,25.41
2022-08-25T19:08:46.970Z,25.33
2022-08-25T19:11:49.105Z,25.22
2022-08-25T19:14:51.065Z,25.07
2022-08-25T19:17:53.767Z,24.99
2022-08-25T19:20:55.451Z,24.86
2022-08-25T19:23:57.175Z,24.73
2022-08-25T19:27:02.324Z,24.67
2022-08-25T19:30:07.261Z,24.57
2022-08-25T19:33:11.527Z,24.47
2022-08-25T19:36:14.447Z,24.38
2022-08-25T19:39:16.447Z,24.30
2022-08-25T19:42:37.345Z,24.23
2022-08-25T19:45:40.913Z,24.21
2022-08-25T19:48:42.708Z,24.12
2022-08-25T19:51:51.142Z,24.05
2022-08-25T19:54:53.528Z,23.97
2022-08-25T19:57:55.376Z,23.91
2022-08-25T20:00:57.073Z,23.81
2022-08-25T20:03:58.805Z,23.75
2022-08-25T20:07:00.737Z,23.70
2022-08-25T20:10:05.953Z,23.64
2022-08-25T20:13:08.876Z,23.62
2022-08-25T20:16:10.909Z,23.54
2022-08-25T20:19:12.999Z,23.48
2022-08-25T20:22:18.684Z,23.41
2022-08-25T20:25:24.439Z,23.38
2022-08-25T20:28:26.265Z,23.32
2022-08-25T20:31:29.533Z,23.26
2022-08-25T20:34:31.649Z,23.21
2022-08-25T20:37:34.370Z,23.16
2022-08-25T20:40:36.264Z,23.10
2022-08-25T20:43:40.160Z,23.05
2022-08-25T20:46:41.830Z,23.04
2022-08-25T20:49:44.842Z,23.03
2022-08-25T20:52:46.507Z,23.03
2022-08-25T20:55:50.382Z,23.00
2022-08-25T20:58:52.188Z,22.95
2022-08-25T21:01:55.133Z,22.91
2022-08-25T21:04:57.614Z,22.85
2022-08-25T21:07:59.296Z,22.80
2022-08-25T21:11:00.902Z,22.75
2022-08-25T21:14:03.044Z,22.70
2022-08-25T21:17:10.554Z,22.65
2022-08-25T21:20:13.666Z,22.55
2022-08-25T21:23:15.292Z,22.50
2022-08-25T21:26:19.608Z,22.43
2022-08-25T21:29:23.270Z,22.34
2022-08-25T21:32:25.853Z,22.26
2022-08-25T21:35:28.355Z,22.13
2022-08-25T21:38:31.526Z,22.07
2022-08-25T21:41:34.932Z,22.02
2022-08-25T21:44:38.620Z,21.96
2022-08-25T21:47:42.472Z,21.90
2022-08-25T21:50:44.386Z,21.88
2022-08-25T21:53:47.317Z,21.81
2022-08-25T21:56:50.981Z,21.82
2022-08-25T21:59:52.633Z,21.81
2022-08-25T22:02:54.477Z,21.81
2022-08-25T22:05:57.230Z,21.80
2022-08-25T22:08:58.888Z,21.81
2022-08-25T22:12:00.762Z,21.80
2022-08-25T22:15:05.976Z,21.84
2022-08-25T22:18:07.658Z,21.83
2022-08-25T22:21:09.776Z,21.84
2022-08-25T22:24:12.804Z,21.83
2022-08-25T22:27:15.523Z,21.86
2022-08-25T22:30:18.774Z,21.85
2022-08-25T22:33:20.393Z,21.85
2022-08-25T22:36:28.483Z,21.88
2022-08-25T22:39:30.974Z,21.90
2022-08-25T22:42:33.777Z,21.92
2022-08-25T22:45:35.909Z,21.89
2022-08-25T22:48:38.584Z,21.81
2022-08-25T22:51:40.341Z,21.75
2022-08-25T22:54:42.190Z,21.68
2022-08-25T22:57:44.026Z,21.62
2022-08-25T23:00:46.493Z,21.58
2022-08-25T23:03:48.626Z,21.56
2022-08-25T23:06:50.630Z,21.51
2022-08-25T23:09:53.038Z,21.44
2022-08-25T23:12:54.677Z,21.43
2022-08-25T23:15:56.287Z,21.41
2022-08-25T23:18:58.695Z,21.40
2022-08-25T23:22:10.601Z,21.39
2022-08-25T23:25:12.513Z,21.37
2022-08-25T23:28:15.300Z,21.37
2022-08-25T23:31:17.936Z,21.38
2022-08-25T23:34:19.587Z,21.37
2022-08-25T23:37:21.286Z,21.34
2022-08-25T23:40:23.014Z,21.27
2022-08-25T23:43:25.994Z,21.24
2022-08-25T23:46:29.562Z,21.21
2022-08-25T23:49:31.186Z,21.18
2022-08-25T23:52:33.381Z,21.17
2022-08-25T23:55:35.950Z,21.12
2022-08-25T23:58:37.620Z,21.11
